createdAt,value
2015-07-17T00:00:03.444Z,95762
2015-07-17T00:00:21.854Z,95757
2015-07-17T00:00:40.416Z,95762
2015-07-17T00:00:58.822Z,95753
2015-07-17T00:01:17.322Z,95762
2015-07-17T00:01:35.776Z,95762
2015-07-17T00:01:54.198Z,95768
2015-07-17T00:02:12.761Z,95757
2015-07-17T00:02:31.232Z,95757
2015-07-17T00:02:49.622Z,95762
2015-07-17T00:03:08.075Z,95759
2015-07-17T00:03:26.562Z,95756
2015-07-17T00:03:45.015Z,95756
2015-07-17T00:04:03.452Z,95751
2015-07-17T00:04:22.046Z,95759
2015-07-17T00:04:40.611Z,95759
2015-07-17T00:04:59.032Z,95756
2015-07-17T00:05:17.720Z,95751
2015-07-17T00:05:36.175Z,95757
2015-07-17T00:05:54.706Z,95754
2015-07-17T00:06:13.238Z,95756
2015-07-17T00:06:31.880Z,95747
2015-07-17T00:06:50.255Z,95750
2015-07-17T00:07:08.818Z,95754
2015-07-17T00:07:27.224Z,95757
2015-07-17T00:07:45.648Z,95748
2015-07-17T00:08:04.367Z,95759
2015-07-17T00:08:22.992Z,95753
2015-07-17T00:08:41.353Z,95750
2015-07-17T00:08:59.759Z,95758
2015-07-17T00:09:18.134Z,95758
2015-07-17T00:09:36.527Z,95749
2015-07-17T00:09:54.964Z,95750
2015-07-17T00:10:13.386Z,95759
2015-07-17T00:10:32.011Z,95759
2015-07-17T00:10:50.451Z,95757
2015-07-17T00:11:08.951Z,95765
2015-07-17T00:11:27.310Z,95754
2015-07-17T00:11:45.734Z,95757
2015-07-17T00:12:04.109Z,95765
2015-07-17T00:12:22.671Z,95765
2015-07-17T00:12:41.252Z,95746
2015-07-17T00:12:59.673Z,95760
2015-07-17T00:13:18.111Z,95754
2015-07-17T00:13:36.611Z,95760
2015-07-17T00:13:55.004Z,95757
2015-07-17T00:14:13.660Z,95756
2015-07-17T00:14:32.222Z,95750
2015-07-17T00:14:50.724Z,95759
2015-07-17T00:15:09.084Z,95756
2015-07-17T00:15:27.677Z,95762
2015-07-17T00:15:46.210Z,95757
2015-07-17T00:16:04.663Z,95760
2015-07-17T00:16:23.038Z,95761
2015-07-17T00:16:41.616Z,95752
2015-07-17T00:17:00.071Z,95763
2015-07-17T00:17:18.587Z,95755
2015-07-17T00:17:37.274Z,95752
2015-07-17T00:17:55.698Z,95750
2015-07-17T00:18:14.089Z,95761
2015-07-17T00:18:32.745Z,95760
2015-07-17T00:18:51.185Z,95749
2015-07-17T00:19:09.842Z,95757
2015-07-17T00:19:28.310Z,95753
2015-07-17T00:19:46.967Z,95753
2015-07-17T00:20:05.422Z,95752
2015-07-17T00:20:23.828Z,95753
2015-07-17T00:20:42.266Z,95754
2015-07-17T00:21:00.782Z,95754
2015-07-17T00:21:19.345Z,95757
2015-07-17T00:21:37.751Z,95746
2015-07-17T00:21:56.238Z,95758
2015-07-17T00:22:14.832Z,95752
2015-07-17T00:22:33.223Z,95758
2015-07-17T00:22:51.879Z,95755
2015-07-17T00:23:10.239Z,95754
2015-07-17T00:23:28.974Z,95754
2015-07-17T00:23:47.349Z,95760
2015-07-17T00:24:05.726Z,95754
2015-07-17T00:24:24.148Z,95751
2015-07-17T00:24:42.538Z,95754
2015-07-17T00:25:00.979Z,95754
2015-07-17T00:25:19.369Z,95762
2015-07-17T00:25:37.869Z,95751
2015-07-17T00:25:56.244Z,95754
2015-07-17T00:26:14.637Z,95742
2015-07-17T00:26:33.059Z,95748
2015-07-17T00:26:51.434Z,95757
2015-07-17T00:27:10.030Z,95751
2015-07-17T00:27:28.498Z,95754
2015-07-17T00:27:46.889Z,95745
2015-07-17T00:28:05.296Z,95754
2015-07-17T00:28:23.827Z,95754
2015-07-17T00:28:42.202Z,95754
2015-07-17T00:29:00.781Z,95754
2015-07-17T00:29:19.423Z,95760
2015-07-17T00:29:37.829Z,95762
2015-07-17T00:29:56.298Z,95756
2015-07-17T00:30:14.832Z,95759
2015-07-17T00:30:33.332Z,95757
2015-07-17T00:30:51.723Z,95757
2015-07-17T00:31:10.163Z,95763
2015-07-17T00:31:28.553Z,95763
2015-07-17T00:31:47.131Z,95758
2015-07-17T00:32:05.600Z,95761
2015-07-17T00:32:23.961Z,95764
2015-07-17T00:32:42.040Z,95758
2015-07-17T00:33:00.461Z,95766
2015-07-17T00:33:19.056Z,95758
2015-07-17T00:33:37.447Z,95761
2015-07-17T00:33:55.384Z,95759
2015-07-17T00:34:13.839Z,95756
2015-07-17T00:34:32.261Z,95753
2015-07-17T00:34:50.714Z,95761
2015-07-17T00:35:09.386Z,95753
2015-07-17T00:35:27.873Z,95748
2015-07-17T00:35:46.248Z,95756
2015-07-17T00:36:04.795Z,95755
2015-07-17T00:36:23.297Z,95761
2015-07-17T00:36:41.687Z,95756
2015-07-17T00:37:00.062Z,95753
2015-07-17T00:37:18.611Z,95755
2015-07-17T00:37:36.970Z,95752
2015-07-17T00:37:55.642Z,95758
2015-07-17T00:38:14.142Z,95761
2015-07-17T00:38:32.629Z,95760
2015-07-17T00:38:51.066Z,95751
2015-07-17T00:39:09.644Z,95760
2015-07-17T00:39:28.037Z,95757
2015-07-17T00:39:46.459Z,95755
2015-07-17T00:40:04.974Z,95747
2015-07-17T00:40:23.367Z,95758
2015-07-17T00:40:41.726Z,95747
2015-07-17T00:41:00.242Z,95764
2015-07-17T00:41:18.650Z,95746
2015-07-17T00:41:36.978Z,95760
2015-07-17T00:41:55.494Z,95749
2015-07-17T00:42:14.072Z,95762
2015-07-17T00:42:32.449Z,95752
2015-07-17T00:42:50.840Z,95754
2015-07-17T00:43:09.668Z,95749
2015-07-17T00:43:28.044Z,95757
2015-07-17T00:43:46.528Z,95755
2015-07-17T00:44:05.138Z,95753
2015-07-17T00:44:23.624Z,95755
2015-07-17T00:44:41.999Z,95752
2015-07-17T00:45:00.421Z,95752
2015-07-17T00:45:19.046Z,95752
2015-07-17T00:45:37.407Z,95758
2015-07-17T00:45:55.829Z,95755
2015-07-17T00:46:14.251Z,95752
2015-07-17T00:46:32.660Z,95752
2015-07-17T00:46:51.379Z,95756
2015-07-17T00:47:09.942Z,95756
2015-07-17T00:47:28.412Z,95753
2015-07-17T00:47:47.069Z,95747
2015-07-17T00:48:05.600Z,95750
2015-07-17T00:48:24.084Z,95746
2015-07-17T00:48:42.929Z,95746
2015-07-17T00:49:01.445Z,95738
2015-07-17T00:49:19.804Z,95752
2015-07-17T00:49:38.354Z,95746
2015-07-17T00:49:56.713Z,95741
2015-07-17T00:50:15.119Z,95752
2015-07-17T00:50:33.559Z,95751
2015-07-17T00:50:51.996Z,95754
2015-07-17T00:51:10.621Z,95746
2015-07-17T00:51:29.121Z,95744
2015-07-17T00:51:47.513Z,95742
2015-07-17T00:52:06.076Z,95742
2015-07-17T00:52:24.544Z,95747
2015-07-17T00:52:42.938Z,95747
2015-07-17T00:53:01.547Z,95747
2015-07-17T00:53:20.079Z,95750
2015-07-17T00:53:38.517Z,95744
2015-07-17T00:53:56.939Z,95741
2015-07-17T00:54:15.423Z,95749
2015-07-17T00:54:33.908Z,95746
2015-07-17T00:54:52.286Z,95743
2015-07-17T00:55:10.661Z,95749
2015-07-17T00:55:29.051Z,95749
2015-07-17T00:55:47.427Z,95755
2015-07-17T00:56:05.787Z,95746
2015-07-17T00:56:24.162Z,95749
2015-07-17T00:56:42.539Z,95751
2015-07-17T00:57:00.914Z,95740
2015-07-17T00:57:19.289Z,95752
2015-07-17T00:57:37.664Z,95746
2015-07-17T00:57:56.041Z,95755
2015-07-17T00:58:14.416Z,95747
2015-07-17T00:58:32.791Z,95745
2015-07-17T00:58:51.168Z,95751
2015-07-17T00:59:09.543Z,95748
2015-07-17T00:59:27.918Z,95742
2015-07-17T00:59:46.310Z,95750
2015-07-17T01:00:04.701Z,95745
2015-07-17T01:00:23.076Z,95745
2015-07-17T01:00:41.451Z,95742
2015-07-17T01:00:59.845Z,95745
2015-07-17T01:01:18.204Z,95750
2015-07-17T01:01:36.595Z,95750
2015-07-17T01:01:54.956Z,95747
2015-07-17T01:02:13.331Z,95739
2015-07-17T01:02:31.690Z,95747
2015-07-17T01:02:50.082Z,95744
2015-07-17T01:03:08.441Z,95741
2015-07-17T01:03:26.832Z,95755
2015-07-17T01:03:45.191Z,95741
2015-07-17T01:04:03.584Z,95749
2015-07-17T01:04:21.959Z,95746
2015-07-17T01:04:40.350Z,95746
2015-07-17T01:04:58.711Z,95749
2015-07-17T01:05:17.102Z,95752
2015-07-17T01:05:35.477Z,95750
2015-07-17T01:05:53.838Z,95748
2015-07-17T01:06:12.213Z,95757
2015-07-17T01:06:30.588Z,95751
2015-07-17T01:06:48.979Z,95745
2015-07-17T01:07:07.356Z,95748
2015-07-17T01:07:25.777Z,95757
2015-07-17T01:07:44.152Z,95745
2015-07-17T01:08:02.545Z,95748
2015-07-17T01:08:20.936Z,95757
2015-07-17T01:08:39.326Z,95755
2015-07-17T01:08:57.703Z,95752
2015-07-17T01:09:16.078Z,95749
2015-07-17T01:09:34.453Z,95745
2015-07-17T01:09:52.830Z,95753
2015-07-17T01:10:11.221Z,95750
2015-07-17T01:10:28.940Z,95750
2015-07-17T01:10:47.315Z,95752
2015-07-17T01:11:05.691Z,95753
2015-07-17T01:11:24.081Z,95753
2015-07-17T01:11:42.456Z,95759
2015-07-17T01:12:00.833Z,95744
2015-07-17T01:12:19.224Z,95748
2015-07-17T01:12:37.599Z,95754
2015-07-17T01:12:55.976Z,95752
2015-07-17T01:13:14.351Z,95755
2015-07-17T01:13:32.710Z,95749
2015-07-17T01:13:51.085Z,95757
2015-07-17T01:14:09.463Z,95742
2015-07-17T01:14:27.838Z,95751
2015-07-17T01:14:46.213Z,95745
2015-07-17T01:15:04.589Z,95747
2015-07-17T01:15:22.980Z,95742
2015-07-17T01:15:41.355Z,95751
2015-07-17T01:15:59.714Z,95743
2015-07-17T01:16:18.091Z,95752
2015-07-17T01:16:36.466Z,95749
2015-07-17T01:16:54.841Z,95746
2015-07-17T01:17:13.219Z,95755
2015-07-17T01:17:31.594Z,95744
2015-07-17T01:17:49.985Z,95755
2015-07-17T01:18:08.378Z,95749
2015-07-17T01:18:26.768Z,95741
2015-07-17T01:18:45.143Z,95744
2015-07-17T01:19:03.518Z,95743
2015-07-17T01:19:21.895Z,95749
2015-07-17T01:19:40.130Z,95738
2015-07-17T01:19:58.505Z,95741
2015-07-17T01:20:16.881Z,95744
2015-07-17T01:20:35.256Z,95739
2015-07-17T01:20:53.646Z,95749
2015-07-17T01:21:12.023Z,95755
2015-07-17T01:21:30.398Z,95749
2015-07-17T01:21:48.789Z,95740
2015-07-17T01:22:06.508Z,95741
2015-07-17T01:22:24.885Z,95743
2015-07-17T01:22:43.244Z,95743
2015-07-17T01:23:01.635Z,95746
2015-07-17T01:23:20.013Z,95743
2015-07-17T01:23:38.388Z,95751
2015-07-17T01:23:56.763Z,95745
2015-07-17T01:24:15.140Z,95749
2015-07-17T01:24:33.530Z,95752
2015-07-17T01:24:51.905Z,95737
2015-07-17T01:25:10.296Z,95743
2015-07-17T01:25:28.687Z,95745
2015-07-17T01:25:47.078Z,95752
2015-07-17T01:26:05.453Z,95749
2015-07-17T01:26:23.830Z,95748
2015-07-17T01:26:42.205Z,95751
2015-07-17T01:27:00.596Z,95745
2015-07-17T01:27:18.973Z,95744
2015-07-17T01:27:37.348Z,95744
2015-07-17T01:27:55.738Z,95752
2015-07-17T01:28:13.457Z,95746
2015-07-17T01:28:31.834Z,95738
2015-07-17T01:28:50.303Z,95749
2015-07-17T01:29:08.850Z,95752
2015-07-17T01:29:27.477Z,95743
2015-07-17T01:29:45.867Z,95749
2015-07-17T01:30:04.586Z,95755
2015-07-17T01:30:23.135Z,95755
2015-07-17T01:30:41.697Z,95738
2015-07-17T01:31:00.119Z,95749
2015-07-17T01:31:18.590Z,95757
2015-07-17T01:31:36.996Z,95755
2015-07-17T01:31:55.481Z,95753
2015-07-17T01:32:13.934Z,95751
2015-07-17T01:32:32.419Z,95751
2015-07-17T01:32:50.950Z,95747
2015-07-17T01:33:09.388Z,95753
2015-07-17T01:33:27.750Z,95753
2015-07-17T01:33:46.328Z,95755
2015-07-17T01:34:04.047Z,95751
2015-07-17T01:34:22.501Z,95745
2015-07-17T01:34:40.970Z,95751
2015-07-17T01:34:59.423Z,95742
2015-07-17T01:35:17.908Z,95743
2015-07-17T01:35:36.269Z,95748
2015-07-17T01:35:54.706Z,95749
2015-07-17T01:36:13.097Z,95744
2015-07-17T01:36:31.583Z,95744
2015-07-17T01:36:50.068Z,95749
2015-07-17T01:37:08.552Z,95754
2015-07-17T01:37:26.976Z,95749
2015-07-17T01:37:45.601Z,95749
2015-07-17T01:38:04.007Z,95751
2015-07-17T01:38:22.601Z,95752
2015-07-17T01:38:41.181Z,95741
2015-07-17T01:38:59.728Z,95739
2015-07-17T01:39:18.181Z,95745
2015-07-17T01:39:36.605Z,95745
2015-07-17T01:39:54.996Z,95744
2015-07-17T01:40:13.652Z,95739
2015-07-17T01:40:32.249Z,95738
2015-07-17T01:40:50.624Z,95749
2015-07-17T01:41:09.217Z,95749
2015-07-17T01:41:27.624Z,95740
2015-07-17T01:41:46.094Z,95740
2015-07-17T01:42:04.532Z,95741
2015-07-17T01:42:22.985Z,95741
2015-07-17T01:42:41.424Z,95744
2015-07-17T01:42:59.814Z,95742
2015-07-17T01:43:18.299Z,95742
2015-07-17T01:43:36.769Z,95741
2015-07-17T01:43:55.394Z,95744
2015-07-17T01:44:13.832Z,95744
2015-07-17T01:44:32.113Z,95750
2015-07-17T01:44:50.507Z,95741
2015-07-17T01:45:08.944Z,95741
2015-07-17T01:45:27.304Z,95741
2015-07-17T01:45:45.743Z,95749
2015-07-17T01:46:04.337Z,95749
2015-07-17T01:46:22.821Z,95752
2015-07-17T01:46:41.260Z,95741
2015-07-17T01:46:59.728Z,95739
2015-07-17T01:47:18.291Z,95743
2015-07-17T01:47:36.853Z,95749
2015-07-17T01:47:55.340Z,95751
2015-07-17T01:48:13.840Z,95754
2015-07-17T01:48:32.621Z,95751
2015-07-17T01:48:51.014Z,95751
2015-07-17T01:49:09.576Z,95748
2015-07-17T01:49:28.248Z,95742
2015-07-17T01:49:46.859Z,95759
2015-07-17T01:50:05.391Z,95745
2015-07-17T01:50:23.922Z,95736
2015-07-17T01:50:42.359Z,95736
2015-07-17T01:51:01.049Z,95744
2015-07-17T01:51:19.924Z,95735
2015-07-17T01:51:38.565Z,95739
2015-07-17T01:51:57.004Z,95743
2015-07-17T01:52:15.613Z,95755
2015-07-17T01:52:34.223Z,95747
2015-07-17T01:52:52.585Z,95742
2015-07-17T01:53:11.116Z,95742
2015-07-17T01:53:29.476Z,95748
2015-07-17T01:53:48.070Z,95753
2015-07-17T01:54:06.586Z,95747
2015-07-17T01:54:25.071Z,95749
2015-07-17T01:54:43.883Z,95752
2015-07-17T01:55:02.479Z,95746
2015-07-17T01:55:20.994Z,95751
2015-07-17T01:55:39.698Z,95744
2015-07-17T01:55:58.575Z,95749
2015-07-17T01:56:17.153Z,95749
2015-07-17T01:56:35.590Z,95751
2015-07-17T01:56:54.155Z,95748
2015-07-17T01:57:12.920Z,95751
2015-07-17T01:57:31.655Z,95745
2015-07-17T01:57:50.014Z,95748
2015-07-17T01:58:08.547Z,95747
2015-07-17T01:58:26.907Z,95750
2015-07-17T01:58:44.782Z,95744
2015-07-17T01:59:03.284Z,95741
2015-07-17T01:59:21.721Z,95748
2015-07-17T01:59:40.143Z,95745
2015-07-17T01:59:58.598Z,95745
2015-07-17T02:00:17.098Z,95736
2015-07-17T02:00:35.661Z,95744
2015-07-17T02:00:54.161Z,95736
2015-07-17T02:01:12.631Z,95746
2015-07-17T02:01:31.147Z,95744
2015-07-17T02:01:49.678Z,95746
2015-07-17T02:02:08.055Z,95735
2015-07-17T02:02:26.508Z,95738
2015-07-17T02:02:44.883Z,95745
2015-07-17T02:03:03.275Z,95738
2015-07-17T02:03:21.744Z,95760
2015-07-17T02:03:40.103Z,95740
2015-07-17T02:03:58.541Z,95743
2015-07-17T02:04:16.934Z,95745
2015-07-17T02:04:35.341Z,95751
2015-07-17T02:04:53.731Z,95751
2015-07-17T02:05:12.155Z,95751
2015-07-17T02:05:30.499Z,95752
2015-07-17T02:05:48.936Z,95755
2015-07-17T02:06:07.312Z,95760
2015-07-17T02:06:25.672Z,95752
2015-07-17T02:06:44.047Z,95750
2015-07-17T02:07:02.453Z,95752
2015-07-17T02:07:20.847Z,95752
2015-07-17T02:07:39.331Z,95748
2015-07-17T02:07:57.065Z,95751
2015-07-17T02:08:15.520Z,95748
2015-07-17T02:08:34.036Z,95754
2015-07-17T02:08:52.599Z,95748
2015-07-17T02:09:11.021Z,95746
2015-07-17T02:09:29.428Z,95753
2015-07-17T02:09:48.084Z,95756
2015-07-17T02:10:06.521Z,95750
2015-07-17T02:10:25.023Z,95755
2015-07-17T02:10:43.523Z,95755
2015-07-17T02:11:02.133Z,95756
2015-07-17T02:11:20.604Z,95744
2015-07-17T02:11:39.057Z,95753
2015-07-17T02:11:57.635Z,95749
2015-07-17T02:12:16.090Z,95752
2015-07-17T02:12:34.465Z,95747
2015-07-17T02:12:52.871Z,95752
2015-07-17T02:13:10.606Z,95752
2015-07-17T02:13:28.983Z,95757
2015-07-17T02:13:47.436Z,95754
2015-07-17T02:14:05.858Z,95760
2015-07-17T02:14:24.281Z,95757
2015-07-17T02:14:42.688Z,95751
2015-07-17T02:15:01.125Z,95754
2015-07-17T02:15:19.581Z,95748
2015-07-17T02:15:38.019Z,95754
2015-07-17T02:15:56.441Z,95756
2015-07-17T02:16:15.020Z,95751
2015-07-17T02:16:33.660Z,95753
2015-07-17T02:16:52.035Z,95756
2015-07-17T02:17:10.582Z,95748
2015-07-17T02:17:29.101Z,95754
2015-07-17T02:17:47.804Z,95753
2015-07-17T02:18:06.476Z,95752
2015-07-17T02:18:25.008Z,95752
2015-07-17T02:18:42.977Z,95744
2015-07-17T02:19:01.493Z,95749
2015-07-17T02:19:19.995Z,95754
2015-07-17T02:19:38.448Z,95754
2015-07-17T02:19:56.995Z,95748
2015-07-17T02:20:15.698Z,95751
2015-07-17T02:20:34.122Z,95752
2015-07-17T02:20:52.668Z,95747
2015-07-17T02:21:11.075Z,95751
2015-07-17T02:21:29.592Z,95751
2015-07-17T02:21:48.030Z,95757
2015-07-17T02:22:06.420Z,95754
2015-07-17T02:22:25.032Z,95746
2015-07-17T02:22:43.610Z,95746
2015-07-17T02:23:02.094Z,95749
2015-07-17T02:23:20.532Z,95743
2015-07-17T02:23:39.189Z,95745
2015-07-17T02:23:57.580Z,95745
2015-07-17T02:24:16.002Z,95745
2015-07-17T02:24:34.426Z,95745
2015-07-17T02:24:52.817Z,95745
2015-07-17T02:25:11.192Z,95745
2015-07-17T02:25:29.600Z,95739
2015-07-17T02:25:47.975Z,95748
2015-07-17T02:26:06.475Z,95742
2015-07-17T02:26:24.960Z,95748
2015-07-17T02:26:43.540Z,95742
2015-07-17T02:27:02.212Z,95750
2015-07-17T02:27:20.602Z,95747
2015-07-17T02:27:39.026Z,95741
2015-07-17T02:27:57.557Z,95753
2015-07-17T02:28:16.011Z,95744
2015-07-17T02:28:34.419Z,95759
2015-07-17T02:28:52.950Z,95748
2015-07-17T02:29:11.403Z,95743
2015-07-17T02:29:29.764Z,95748
2015-07-17T02:29:48.217Z,95740
2015-07-17T02:30:06.982Z,95743
2015-07-17T02:30:25.685Z,95745
2015-07-17T02:30:44.141Z,95748
2015-07-17T02:31:02.625Z,95742
2015-07-17T02:31:21.047Z,95747
2015-07-17T02:31:39.815Z,95747
2015-07-17T02:31:58.175Z,95753
2015-07-17T02:32:16.612Z,95742
2015-07-17T02:32:35.177Z,95748
2015-07-17T02:32:53.692Z,95750
2015-07-17T02:33:12.208Z,95744
2015-07-17T02:33:30.898Z,95742
2015-07-17T02:33:49.319Z,95742
2015-07-17T02:34:07.694Z,95748
2015-07-17T02:34:26.148Z,95750
2015-07-17T02:34:44.712Z,95741
2015-07-17T02:35:03.290Z,95744
2015-07-17T02:35:21.806Z,95739
2015-07-17T02:35:40.494Z,95748
2015-07-17T02:35:59.026Z,95753
2015-07-17T02:36:17.401Z,95753
2015-07-17T02:36:36.371Z,95744
2015-07-17T02:36:54.840Z,95741
2015-07-17T02:37:13.418Z,95744
2015-07-17T02:37:31.840Z,95745
2015-07-17T02:37:50.451Z,95751
2015-07-17T02:38:08.936Z,95746
2015-07-17T02:38:27.811Z,95752
2015-07-17T02:38:46.297Z,95744
2015-07-17T02:39:04.657Z,95746
2015-07-17T02:39:23.032Z,95748
2015-07-17T02:39:41.815Z,95748
2015-07-17T02:40:00.268Z,95755
2015-07-17T02:40:18.690Z,95736
2015-07-17T02:40:37.080Z,95749
2015-07-17T02:40:55.723Z,95749
2015-07-17T02:41:14.317Z,95743
2015-07-17T02:41:32.973Z,95746
2015-07-17T02:41:51.459Z,95737
2015-07-17T02:42:09.897Z,95757
2015-07-17T02:42:28.569Z,95746
2015-07-17T02:42:46.993Z,95748
2015-07-17T02:43:05.758Z,95748
2015-07-17T02:43:24.243Z,95748
2015-07-17T02:43:45.698Z,95749
2015-07-17T02:44:04.120Z,95754
2015-07-17T02:44:22.573Z,95748
2015-07-17T02:44:41.073Z,95754
2015-07-17T02:44:59.481Z,95740
2015-07-17T02:45:18.028Z,95752
2015-07-17T02:45:36.637Z,95750
2015-07-17T02:45:55.186Z,95738
2015-07-17T02:46:13.764Z,95756
2015-07-17T02:46:32.249Z,95754
2015-07-17T02:46:50.656Z,95754
2015-07-17T02:47:09.281Z,95747
2015-07-17T02:47:27.890Z,95744
2015-07-17T02:47:46.312Z,95750
2015-07-17T02:48:04.736Z,95752
2015-07-17T02:48:23.283Z,95744
2015-07-17T02:48:41.799Z,95755
2015-07-17T02:49:00.254Z,95744
2015-07-17T02:49:18.722Z,95752
2015-07-17T02:49:37.394Z,95744
2015-07-17T02:49:55.819Z,95751
2015-07-17T02:50:14.429Z,95750
2015-07-17T02:50:32.991Z,95750
2015-07-17T02:50:51.679Z,95756
2015-07-17T02:51:10.118Z,95756
2015-07-17T02:51:28.727Z,95753
2015-07-17T02:51:47.274Z,95741
2015-07-17T02:52:05.667Z,95747
2015-07-17T02:52:24.417Z,95755
2015-07-17T02:52:42.901Z,95738
2015-07-17T02:53:01.294Z,95741
2015-07-17T02:53:19.981Z,95744
2015-07-17T02:53:38.497Z,95744
2015-07-17T02:53:57.091Z,95747
2015-07-17T02:54:15.654Z,95751
2015-07-17T02:54:34.092Z,95754
2015-07-17T02:54:52.467Z,95749
2015-07-17T02:55:11.407Z,95758
2015-07-17T02:55:29.907Z,95747
2015-07-17T02:55:48.470Z,95759
2015-07-17T02:56:06.941Z,95750
2015-07-17T02:56:25.722Z,95749
2015-07-17T02:56:44.097Z,95752
2015-07-17T02:57:02.534Z,95743
2015-07-17T02:57:20.911Z,95752
2015-07-17T02:57:39.739Z,95749
2015-07-17T02:57:58.318Z,95749
2015-07-17T02:58:16.881Z,95757
2015-07-17T02:58:35.350Z,95760
2015-07-17T02:58:53.959Z,95763
2015-07-17T02:59:12.352Z,95755
2015-07-17T02:59:30.946Z,95766
2015-07-17T02:59:49.524Z,95754
2015-07-17T03:00:08.041Z,95754
2015-07-17T03:00:26.635Z,95754
2015-07-17T03:00:45.260Z,95754
2015-07-17T03:01:03.916Z,95748
2015-07-17T03:01:21.668Z,95759
2015-07-17T03:01:40.043Z,95758
2015-07-17T03:01:58.512Z,95759
2015-07-17T03:02:17.280Z,95761
2015-07-17T03:02:35.764Z,95754
2015-07-17T03:02:54.358Z,95755
2015-07-17T03:03:12.969Z,95752
2015-07-17T03:03:30.797Z,95758
2015-07-17T03:03:48.735Z,95760
2015-07-17T03:04:07.125Z,95754
2015-07-17T03:04:25.674Z,95760
2015-07-17T03:04:44.206Z,95749
2015-07-17T03:05:02.581Z,95746
2015-07-17T03:05:21.098Z,95746
2015-07-17T03:05:39.504Z,95746
2015-07-17T03:05:58.020Z,95757
2015-07-17T03:06:16.506Z,95754
2015-07-17T03:06:35.178Z,95753
2015-07-17T03:06:53.647Z,95760
2015-07-17T03:07:12.102Z,95758
2015-07-17T03:07:30.696Z,95764
2015-07-17T03:07:49.165Z,95756
2015-07-17T03:08:07.665Z,95770
2015-07-17T03:08:26.417Z,95758
2015-07-17T03:08:44.870Z,95758
2015-07-17T03:09:03.417Z,95761
2015-07-17T03:09:21.872Z,95758
2015-07-17T03:09:39.731Z,95754
2015-07-17T03:09:58.372Z,95759
2015-07-17T03:10:17.014Z,95757
2015-07-17T03:10:35.530Z,95760
2015-07-17T03:10:53.936Z,95763
2015-07-17T03:11:12.686Z,95766
2015-07-17T03:11:31.095Z,95763
2015-07-17T03:11:49.845Z,95765
2015-07-17T03:12:08.235Z,95768
2015-07-17T03:12:26.737Z,95757
2015-07-17T03:12:45.112Z,95762
2015-07-17T03:13:03.706Z,95760
2015-07-17T03:13:22.177Z,95769
2015-07-17T03:13:40.677Z,95760
2015-07-17T03:13:59.083Z,95763
2015-07-17T03:14:17.458Z,95763
2015-07-17T03:14:36.007Z,95772
2015-07-17T03:14:54.538Z,95762
2015-07-17T03:15:13.163Z,95765
2015-07-17T03:15:31.696Z,95762
2015-07-17T03:15:50.243Z,95762
2015-07-17T03:16:08.665Z,95765
2015-07-17T03:16:27.058Z,95762
2015-07-17T03:16:45.683Z,95768
2015-07-17T03:17:04.089Z,95765
2015-07-17T03:17:22.808Z,95762
2015-07-17T03:17:41.232Z,95759
2015-07-17T03:17:59.685Z,95761
2015-07-17T03:18:18.091Z,95758
2015-07-17T03:18:36.561Z,95769
2015-07-17T03:18:55.358Z,95764
2015-07-17T03:19:13.951Z,95771
2015-07-17T03:19:32.516Z,95768
2015-07-17T03:19:51.172Z,95760
2015-07-17T03:20:09.906Z,95768
2015-07-17T03:20:28.283Z,95765
2015-07-17T03:20:46.737Z,95759
2015-07-17T03:21:05.299Z,95770
2015-07-17T03:21:23.940Z,95769
2015-07-17T03:21:42.520Z,95767
2015-07-17T03:22:00.895Z,95767
2015-07-17T03:22:19.473Z,95768
2015-07-17T03:22:37.975Z,95757
2015-07-17T03:22:56.522Z,95762
2015-07-17T03:23:15.100Z,95768
2015-07-17T03:23:33.555Z,95765
2015-07-17T03:23:52.227Z,95770
2015-07-17T03:24:10.821Z,95770
2015-07-17T03:24:29.274Z,95767
2015-07-17T03:24:47.698Z,95767
2015-07-17T03:25:06.104Z,95764
2015-07-17T03:25:24.510Z,95769
2015-07-17T03:25:43.028Z,95767
2015-07-17T03:26:01.122Z,95764
2015-07-17T03:26:19.715Z,95774
2015-07-17T03:26:38.078Z,95771
2015-07-17T03:26:56.703Z,95767
2015-07-17T03:27:15.234Z,95762
2015-07-17T03:27:33.921Z,95771
2015-07-17T03:27:52.297Z,95766
2015-07-17T03:28:10.672Z,95762
2015-07-17T03:28:29.204Z,95759
2015-07-17T03:28:47.987Z,95756
2015-07-17T03:29:06.424Z,95765
2015-07-17T03:29:25.221Z,95762
2015-07-17T03:29:43.708Z,95760
2015-07-17T03:30:02.145Z,95757
2015-07-17T03:30:20.598Z,95765
2015-07-17T03:30:39.223Z,95762
2015-07-17T03:30:57.897Z,95765
2015-07-17T03:31:16.600Z,95760
2015-07-17T03:31:35.288Z,95776
2015-07-17T03:31:53.930Z,95762
2015-07-17T03:32:12.477Z,95765
2015-07-17T03:32:30.962Z,95757
2015-07-17T03:32:50.043Z,95762
2015-07-17T03:33:08.418Z,95763
2015-07-17T03:33:26.965Z,95749
2015-07-17T03:33:45.465Z,95764
2015-07-17T03:34:04.091Z,95758
2015-07-17T03:34:22.591Z,95761
2015-07-17T03:34:41.075Z,95763
2015-07-17T03:34:59.765Z,95757
2015-07-17T03:35:18.186Z,95765
2015-07-17T03:35:36.577Z,95760
2015-07-17T03:35:55.220Z,95757
2015-07-17T03:36:13.704Z,95760
2015-07-17T03:36:32.345Z,95763
2015-07-17T03:36:51.128Z,95758
2015-07-17T03:37:09.675Z,95758
2015-07-17T03:37:28.222Z,95752
2015-07-17T03:37:46.690Z,95770
2015-07-17T03:38:05.177Z,95759
2015-07-17T03:38:23.817Z,95760
2015-07-17T03:38:41.177Z,95765
2015-07-17T03:38:59.804Z,95756
2015-07-17T03:39:18.163Z,95753
2015-07-17T03:39:36.726Z,95745
2015-07-17T03:39:55.321Z,95759
2015-07-17T03:40:13.790Z,95753
2015-07-17T03:40:32.259Z,95744
2015-07-17T03:40:50.696Z,95753
2015-07-17T03:41:09.136Z,95756
2015-07-17T03:41:27.745Z,95755
2015-07-17T03:41:46.308Z,95758
2015-07-17T03:42:04.732Z,95752
2015-07-17T03:42:23.575Z,95764
2015-07-17T03:42:42.107Z,95759
2015-07-17T03:43:00.656Z,95762
2015-07-17T03:43:19.265Z,95754
2015-07-17T03:43:37.734Z,95763
2015-07-17T03:43:56.140Z,95755
2015-07-17T03:44:14.610Z,95757
2015-07-17T03:44:33.125Z,95760
2015-07-17T03:44:51.672Z,95757
2015-07-17T03:45:10.487Z,95760
2015-07-17T03:45:29.018Z,95760
2015-07-17T03:45:47.643Z,95757
2015-07-17T03:46:06.099Z,95765
2015-07-17T03:46:24.537Z,95765
2015-07-17T03:46:42.927Z,95762
2015-07-17T03:47:01.380Z,95754
2015-07-17T03:47:19.897Z,95765
2015-07-17T03:47:38.538Z,95756
2015-07-17T03:47:56.913Z,95761
2015-07-17T03:48:15.461Z,95761
2015-07-17T03:48:34.055Z,95761
2015-07-17T03:48:51.946Z,95763
2015-07-17T03:49:10.339Z,95757
2015-07-17T03:49:28.996Z,95762
2015-07-17T03:49:47.418Z,95765
2015-07-17T03:50:06.058Z,95765
2015-07-17T03:50:24.512Z,95762
2015-07-17T03:50:43.122Z,95762
2015-07-17T03:51:01.872Z,95762
2015-07-17T03:51:20.421Z,95762
2015-07-17T03:51:38.796Z,95765
2015-07-17T03:51:56.514Z,95765
2015-07-17T03:52:15.063Z,95771
2015-07-17T03:52:32.985Z,95765
2015-07-17T03:52:51.688Z,95768
2015-07-17T03:53:10.173Z,95766
2015-07-17T03:53:28.910Z,95772
2015-07-17T03:53:47.566Z,95771
2015-07-17T03:54:05.988Z,95765
2015-07-17T03:54:24.631Z,95766
2015-07-17T03:54:43.084Z,95766
2015-07-17T03:55:01.693Z,95769
2015-07-17T03:55:20.460Z,95758
2015-07-17T03:55:39.116Z,95772
2015-07-17T03:55:57.600Z,95761
2015-07-17T03:56:16.290Z,95769
2015-07-17T03:56:34.743Z,95769
2015-07-17T03:56:53.431Z,95766
2015-07-17T03:57:12.056Z,95765
2015-07-17T03:57:30.839Z,95768
2015-07-17T03:57:49.292Z,95773